createdAt,value
2022-12-12T00:02:04.492Z,64.13
2022-12-12T00:04:36.109Z,76.07
2022-12-12T00:07:04.776Z,73.97
2022-12-12T00:09:33.385Z,76.63
2022-12-12T00:12:05.680Z,67.22
2022-12-12T00:14:35.606Z,63.55
2022-12-12T00:17:05.430Z,74.03
2022-12-12T00:19:38.198Z,76.13
2022-12-12T00:22:21.326Z,74.45
2022-12-12T00:24:53.401Z,79.00
2022-12-12T00:27:23.457Z,64.57
2022-12-12T00:29:54.558Z,85.57
2022-12-12T00:32:36.058Z,74.20
2022-12-12T00:35:05.326Z,70.10
2022-12-12T00:37:34.018Z,73.65
2022-12-12T00:40:03.807Z,82.32
2022-12-12T00:42:44.817Z,81.13
2022-12-12T00:45:16.948Z,70.88
2022-12-12T00:47:45.868Z,89.35
2022-12-12T00:50:15.227Z,93.90
2022-12-12T00:52:52.034Z,88.80
2022-12-12T00:55:21.165Z,82.05
2022-12-12T00:57:52.590Z,79.05
2022-12-12T01:00:22.857Z,84.22
2022-12-12T01:02:52.995Z,84.30
2022-12-12T01:05:22.407Z,82.55
2022-12-12T01:07:51.250Z,91.97
2022-12-12T01:10:26.287Z,87.70
2022-12-12T01:12:56.447Z,129.50
2022-12-12T01:15:26.788Z,128.02
2022-12-12T01:17:55.847Z,83.35
2022-12-12T01:20:28.827Z,88.30
2022-12-12T01:22:58.378Z,95.07
2022-12-12T01:25:27.463Z,77.05
2022-12-12T01:28:00.537Z,85.15
2022-12-12T01:30:30.169Z,80.60
2022-12-12T01:32:58.798Z,104.82
2022-12-12T01:35:27.626Z,87.68
2022-12-12T01:37:56.324Z,110.90
2022-12-12T01:40:27.326Z,74.28
2022-12-12T01:43:07.768Z,94.25
2022-12-12T01:46:17.574Z,114.07
2022-12-12T01:51:57.617Z,104.38
2022-12-12T01:54:32.766Z,94.43
2022-12-12T01:57:13.443Z,93.70
2022-12-12T01:59:45.206Z,111.20
2022-12-12T02:02:20.271Z,130.25
2022-12-12T02:04:56.350Z,116.35
2022-12-12T02:07:25.540Z,115.57
2022-12-12T02:09:55.139Z,153.45
2022-12-12T02:12:23.967Z,121.53
2022-12-12T02:14:58.642Z,143.25
2022-12-12T02:17:50.597Z,202.60
2022-12-12T02:21:04.559Z,156.60
2022-12-12T02:24:11.346Z,125.35
2022-12-12T02:27:24.558Z,133.88
2022-12-12T02:30:21.728Z,146.45
2022-12-12T02:33:20.308Z,118.35
2022-12-12T02:36:04.689Z,133.02
2022-12-12T02:38:41.977Z,151.48
2022-12-12T02:41:26.908Z,121.65
2022-12-12T02:44:09.606Z,168.70
2022-12-12T02:46:48.540Z,140.52
2022-12-12T02:49:28.400Z,185.90
2022-12-12T02:51:59.245Z,218.93
2022-12-12T02:54:28.959Z,131.07
2022-12-12T02:57:03.552Z,128.20
2022-12-12T02:59:36.084Z,133.60
2022-12-12T03:03:18.074Z,119.15
2022-12-12T03:06:21.839Z,120.65
2022-12-12T03:09:06.066Z,126.90
2022-12-12T03:11:49.099Z,120.75
2022-12-12T03:14:27.126Z,131.93
2022-12-12T03:17:07.103Z,237.82
2022-12-12T03:19:44.708Z,147.63
2022-12-12T03:22:25.887Z,282.73
2022-12-12T03:25:05.966Z,138.85
2022-12-12T03:27:47.027Z,238.02
2022-12-12T03:30:19.528Z,151.90
2022-12-12T03:33:00.452Z,308.98
2022-12-12T03:35:35.335Z,330.10
2022-12-12T03:38:11.718Z,299.50
2022-12-12T03:40:48.767Z,187.80
2022-12-12T03:43:26.794Z,159.35
2022-12-12T03:46:01.605Z,162.77
2022-12-12T03:48:36.248Z,144.05
2022-12-12T03:51:07.517Z,159.02
2022-12-12T03:53:45.216Z,182.43
2022-12-12T03:56:20.678Z,173.52
2022-12-12T03:58:54.298Z,121.47
2022-12-12T04:01:30.299Z,167.13
2022-12-12T04:04:14.753Z,268.60
2022-12-12T04:06:49.987Z,355.90
2022-12-12T04:09:38.948Z,337.80
2022-12-12T04:12:32.828Z,350.55
2022-12-12T04:15:55.826Z,322.45
2022-12-12T04:18:45.907Z,258.50
2022-12-12T04:21:49.768Z,230.57
2022-12-12T04:24:36.949Z,155.27
2022-12-12T04:27:21.042Z,277.27
2022-12-12T04:29:55.269Z,309.25
2022-12-12T04:32:30.396Z,370.05
2022-12-12T04:35:07.944Z,376.73
2022-12-12T04:37:40.757Z,434.55
2022-12-12T04:40:29.587Z,340.90
2022-12-12T04:43:05.596Z,424.60
2022-12-12T04:45:38.558Z,423.15
2022-12-12T04:48:12.127Z,298.15
2022-12-12T04:50:45.518Z,401.48
2022-12-12T04:53:18.987Z,376.08
2022-12-12T04:55:58.877Z,406.20
2022-12-12T04:58:29.547Z,361.58
2022-12-12T05:01:05.643Z,448.50
2022-12-12T05:03:43.045Z,298.48
2022-12-12T05:06:15.927Z,371.08
2022-12-12T05:08:53.694Z,332.88
2022-12-12T05:11:25.839Z,377.90
2022-12-12T05:13:56.145Z,201.60
2022-12-12T05:16:28.396Z,274.35
2022-12-12T05:18:57.296Z,364.65
2022-12-12T05:21:26.346Z,401.70
2022-12-12T05:23:55.740Z,390.27
2022-12-12T05:26:36.019Z,388.13
2022-12-12T05:29:07.673Z,259.40
2022-12-12T05:31:37.242Z,400.08
2022-12-12T05:34:06.197Z,390.52
2022-12-12T05:36:35.328Z,282.23
2022-12-12T05:39:06.866Z,367.63
2022-12-12T05:41:39.196Z,283.92
2022-12-12T05:44:08.292Z,312.20
2022-12-12T05:46:36.845Z,263.58
2022-12-12T05:49:06.071Z,290.67
2022-12-12T05:51:35.826Z,286.30
2022-12-12T05:54:04.759Z,150.95
2022-12-12T05:56:41.871Z,240.75
2022-12-12T05:59:11.610Z,301.33
2022-12-12T06:01:43.116Z,420.23
2022-12-12T06:04:11.802Z,292.08
2022-12-12T06:06:42.708Z,225.23
2022-12-12T06:09:11.435Z,369.25
2022-12-12T06:11:42.584Z,314.63
2022-12-12T06:14:12.620Z,225.07
2022-12-12T06:16:42.451Z,304.80
2022-12-12T06:19:12.973Z,302.60
2022-12-12T06:21:41.807Z,332.38
2022-12-12T06:24:11.583Z,181.98
2022-12-12T06:26:41.502Z,277.98
2022-12-12T06:29:11.213Z,245.20
2022-12-12T06:31:40.997Z,288.95
2022-12-12T06:34:12.341Z,290.60
2022-12-12T06:36:48.897Z,202.73
2022-12-12T06:39:19.806Z,328.65
2022-12-12T06:41:52.126Z,291.08
2022-12-12T06:44:22.788Z,352.70
2022-12-12T06:46:52.464Z,254.77
2022-12-12T06:49:28.502Z,324.75
2022-12-12T06:51:57.194Z,241.57
2022-12-12T06:54:28.981Z,389.88
2022-12-12T06:56:59.062Z,268.63
2022-12-12T06:59:30.529Z,420.77
2022-12-12T07:02:01.281Z,244.98
2022-12-12T07:04:33.017Z,306.33
2022-12-12T07:07:01.758Z,307.23
2022-12-12T07:09:30.511Z,456.45
2022-12-12T07:12:01.964Z,314.95
2022-12-12T07:14:30.528Z,258.13
2022-12-12T07:16:59.961Z,372.33
2022-12-12T07:19:28.870Z,224.95
2022-12-12T07:21:57.451Z,342.60
2022-12-12T07:24:26.047Z,328.45
2022-12-12T07:26:54.919Z,208.45
2022-12-12T07:29:25.148Z,337.27
2022-12-12T07:31:53.576Z,350.67
2022-12-12T07:34:22.238Z,404.95
2022-12-12T07:36:51.379Z,372.58
2022-12-12T07:39:21.151Z,285.42
2022-12-12T07:41:50.290Z,255.43
2022-12-12T07:44:19.729Z,219.98
2022-12-12T07:46:49.984Z,160.63
2022-12-12T07:49:18.570Z,309.63
2022-12-12T07:51:49.125Z,170.85
2022-12-12T07:54:22.021Z,180.27
2022-12-12T07:56:50.734Z,248.52
2022-12-12T07:59:19.224Z,219.10
2022-12-12T08:01:48.420Z,240.80
2022-12-12T08:04:18.952Z,172.85
2022-12-12T08:06:50.014Z,171.30
2022-12-12T08:09:21.371Z,138.32
2022-12-12T08:11:49.898Z,118.40
2022-12-12T08:14:18.474Z,191.80
2022-12-12T08:16:47.475Z,192.77
2022-12-12T08:19:30.703Z,152.68
2022-12-12T08:22:00.888Z,215.90
2022-12-12T08:24:30.448Z,176.15
2022-12-12T08:26:59.013Z,202.85
2022-12-12T08:29:29.668Z,88.93
2022-12-12T08:31:58.522Z,133.23
2022-12-12T08:34:27.937Z,144.27
2022-12-12T08:36:57.130Z,159.73
2022-12-12T08:39:28.483Z,122.95
2022-12-12T08:41:56.928Z,330.50
2022-12-12T08:44:25.399Z,101.47
2022-12-12T08:46:54.211Z,194.98
2022-12-12T08:49:22.964Z,172.32
2022-12-12T08:51:51.917Z,204.55
2022-12-12T08:54:20.432Z,196.15
2022-12-12T08:56:50.460Z,169.23
2022-12-12T08:59:18.951Z,96.53
2022-12-12T09:01:47.692Z,134.57
2022-12-12T09:04:16.397Z,141.15
2022-12-12T09:06:46.195Z,161.25
2022-12-12T09:09:15.689Z,133.48
2022-12-12T09:11:44.002Z,244.32
2022-12-12T09:14:13.788Z,121.75
2022-12-12T09:16:44.681Z,164.25
2022-12-12T09:19:13.534Z,127.18
2022-12-12T09:21:43.800Z,238.38
2022-12-12T09:24:14.989Z,128.00
2022-12-12T09:26:43.988Z,135.13
2022-12-12T09:29:14.490Z,145.52
2022-12-12T09:31:42.979Z,185.90
2022-12-12T09:34:11.538Z,106.57
2022-12-12T09:36:40.072Z,135.30
2022-12-12T09:39:11.473Z,184.27
2022-12-12T09:41:40.810Z,165.65
2022-12-12T09:44:12.550Z,113.25
2022-12-12T09:46:47.513Z,125.55
2022-12-12T09:49:22.959Z,180.05
2022-12-12T09:51:53.678Z,219.05
2022-12-12T09:54:29.835Z,191.65
2022-12-12T09:57:15.911Z,156.98
2022-12-12T09:59:51.722Z,94.85
2022-12-12T10:02:48.250Z,217.40
2022-12-12T10:05:29.361Z,200.52
2022-12-12T10:08:06.359Z,163.43
2022-12-12T10:10:38.316Z,145.75
2022-12-12T10:13:14.931Z,182.73
2022-12-12T10:15:48.242Z,178.57
2022-12-12T10:18:22.533Z,167.52
2022-12-12T10:20:55.909Z,164.35
2022-12-12T10:23:37.472Z,196.93
2022-12-12T10:26:10.111Z,134.63
2022-12-12T10:28:38.732Z,130.43
2022-12-12T10:31:20.928Z,108.60
2022-12-12T10:34:05.218Z,211.27
2022-12-12T10:36:50.812Z,121.07
2022-12-12T10:39:32.545Z,207.32
2022-12-12T10:42:08.383Z,149.55
2022-12-12T10:45:18.299Z,164.00
2022-12-12T10:47:48.473Z,114.32
2022-12-12T10:50:29.955Z,98.18
2022-12-12T10:52:58.867Z,138.07
2022-12-12T10:55:37.194Z,125.82
2022-12-12T10:58:08.210Z,219.65
2022-12-12T11:00:38.828Z,178.77
2022-12-12T11:03:30.933Z,140.55
2022-12-12T11:06:08.151Z,142.05
2022-12-12T11:08:38.739Z,267.55
2022-12-12T11:11:19.841Z,281.27
2022-12-12T11:13:53.485Z,156.05
2022-12-12T11:16:26.433Z,141.85
2022-12-12T11:19:07.932Z,145.82
2022-12-12T11:21:40.156Z,147.57
2022-12-12T11:24:14.670Z,128.45
2022-12-12T11:26:47.414Z,213.38
2022-12-12T11:29:42.371Z,140.50
2022-12-12T11:32:16.316Z,127.82
2022-12-12T11:34:51.231Z,133.05
2022-12-12T11:37:25.515Z,124.03
2022-12-12T11:39:55.699Z,143.95
2022-12-12T11:42:28.564Z,94.03
2022-12-12T11:45:03.461Z,106.53
2022-12-12T11:47:41.353Z,102.72
2022-12-12T11:50:22.394Z,133.45
2022-12-12T11:52:55.496Z,193.15
2022-12-12T11:55:36.926Z,219.23
2022-12-12T11:58:18.359Z,187.60
2022-12-12T12:00:52.000Z,134.52
2022-12-12T12:03:33.186Z,157.73
2022-12-12T12:06:26.826Z,118.30
2022-12-12T12:09:13.295Z,162.10
2022-12-12T12:11:51.706Z,131.82
2022-12-12T12:14:35.951Z,187.27
2022-12-12T12:17:13.151Z,201.25
2022-12-12T12:19:48.742Z,238.95
2022-12-12T12:22:28.014Z,214.30
2022-12-12T12:25:25.829Z,149.80
2022-12-12T12:28:20.277Z,123.38
2022-12-12T12:30:59.815Z,104.03
2022-12-12T12:33:47.338Z,115.95
2022-12-12T12:36:23.117Z,125.35
2022-12-12T12:39:06.037Z,120.43
2022-12-12T12:41:51.925Z,121.30
2022-12-12T12:44:42.154Z,240.50
2022-12-12T12:47:25.093Z,168.70
2022-12-12T12:49:59.308Z,197.38
2022-12-12T12:52:34.815Z,215.43
2022-12-12T12:55:05.955Z,148.68
2022-12-12T12:57:41.168Z,144.63
2022-12-12T13:00:17.698Z,181.48
2022-12-12T13:02:55.997Z,155.50
2022-12-12T13:05:33.706Z,198.32
2022-12-12T13:08:14.825Z,168.93
2022-12-12T13:10:49.176Z,145.70
2022-12-12T13:13:25.907Z,249.23
2022-12-12T13:15:58.378Z,188.63
2022-12-12T13:18:45.146Z,159.93
2022-12-12T13:21:24.491Z,146.98
2022-12-12T13:24:01.114Z,199.43
2022-12-12T13:26:40.159Z,123.53
2022-12-12T13:29:32.106Z,136.48
2022-12-12T13:32:37.557Z,158.43
2022-12-12T13:35:11.573Z,154.07
2022-12-12T13:37:47.385Z,113.82
2022-12-12T13:40:36.771Z,129.57
2022-12-12T13:43:09.920Z,121.70
2022-12-12T13:45:45.436Z,121.05
2022-12-12T13:48:55.725Z,371.92
2022-12-12T13:51:36.028Z,179.65
2022-12-12T13:54:53.409Z,223.50
2022-12-12T13:57:30.124Z,139.48
2022-12-12T14:00:22.436Z,127.55
2022-12-12T14:03:02.756Z,135.70
2022-12-12T14:05:36.162Z,152.10
2022-12-12T14:08:24.340Z,171.05
2022-12-12T14:10:57.832Z,140.13
2022-12-12T14:13:43.540Z,146.63
2022-12-12T14:16:23.997Z,321.52
2022-12-12T14:19:06.770Z,131.75
2022-12-12T14:21:43.043Z,197.52
2022-12-12T14:24:55.012Z,325.83
2022-12-12T14:27:56.730Z,398.77
2022-12-12T14:30:30.850Z,175.18
2022-12-12T14:33:11.052Z,265.67
2022-12-12T14:35:53.075Z,308.27
2022-12-12T14:38:32.908Z,203.70
2022-12-12T14:41:11.622Z,262.10
2022-12-12T14:43:49.026Z,220.68
2022-12-12T14:46:44.224Z,206.55
2022-12-12T14:49:17.060Z,204.95
2022-12-12T14:51:52.518Z,334.02
2022-12-12T14:54:24.175Z,1034.70
2022-12-12T14:56:55.947Z,206.27
2022-12-12T14:59:31.462Z,288.77
2022-12-12T15:02:03.474Z,475.92
2022-12-12T15:04:34.509Z,448.65
2022-12-12T15:07:06.483Z,691.55
2022-12-12T15:09:37.022Z,353.05
2022-12-12T15:12:16.515Z,699.08
2022-12-12T15:14:56.386Z,213.60
2022-12-12T15:17:32.851Z,275.63
2022-12-12T15:20:04.796Z,686.47
2022-12-12T15:22:37.727Z,281.02
2022-12-12T15:25:17.951Z,473.38
2022-12-12T15:27:55.300Z,1093.80
2022-12-12T15:30:33.869Z,966.20
2022-12-12T15:33:03.771Z,164.77
2022-12-12T15:35:34.512Z,300.10
2022-12-12T15:38:07.200Z,349.02
2022-12-12T15:40:37.968Z,476.58
2022-12-12T15:43:09.347Z,233.88
2022-12-12T15:45:41.039Z,594.92
2022-12-12T15:48:17.226Z,319.42
2022-12-12T15:50:59.123Z,290.38
2022-12-12T15:53:34.584Z,185.63
2022-12-12T15:56:05.906Z,340.15
2022-12-12T15:58:39.119Z,311.80
2022-12-12T16:01:21.386Z,364.83
2022-12-12T16:04:00.173Z,328.00
2022-12-12T16:06:31.873Z,710.13
2022-12-12T16:09:18.865Z,275.25
2022-12-12T16:11:48.972Z,603.38
2022-12-12T16:14:39.616Z,491.92
2022-12-12T16:17:13.996Z,638.63
2022-12-12T16:19:46.207Z,459.10
2022-12-12T16:22:34.662Z,482.30
2022-12-12T16:25:19.423Z,669.50
2022-12-12T16:27:52.698Z,497.30
2022-12-12T16:30:21.982Z,604.78
2022-12-12T16:32:50.995Z,416.95
2022-12-12T16:35:22.173Z,335.00
2022-12-12T16:37:53.130Z,731.05
2022-12-12T16:40:24.450Z,324.77
2022-12-12T16:42:56.802Z,562.92
2022-12-12T16:45:25.577Z,326.75
2022-12-12T16:47:54.313Z,565.90
2022-12-12T16:50:23.966Z,415.08
2022-12-12T16:52:52.689Z,501.55
2022-12-12T16:55:25.348Z,452.83
2022-12-12T16:57:54.283Z,370.30
2022-12-12T17:00:23.556Z,421.88
2022-12-12T17:02:52.099Z,361.10
2022-12-12T17:05:24.277Z,664.67
2022-12-12T17:07:54.085Z,553.50
2022-12-12T17:10:29.700Z,229.68
2022-12-12T17:12:58.270Z,269.17
2022-12-12T17:15:30.101Z,318.42
2022-12-12T17:18:00.230Z,458.10
2022-12-12T17:20:37.511Z,624.80
2022-12-12T17:23:28.945Z,509.85
2022-12-12T17:26:03.996Z,263.23
2022-12-12T17:32:13.528Z,222.18
2022-12-12T17:34:55.710Z,186.15
2022-12-12T17:37:29.850Z,367.30
2022-12-12T17:40:09.618Z,238.88
2022-12-12T17:46:20.293Z,175.35
2022-12-12T17:52:37.886Z,209.07
2022-12-12T17:55:53.188Z,179.68
2022-12-12T17:58:27.970Z,264.98
2022-12-12T18:01:11.785Z,204.88
2022-12-12T18:03:49.954Z,223.48
2022-12-12T18:06:21.639Z,254.55
2022-12-12T18:08:50.816Z,310.95
2022-12-12T18:11:21.640Z,316.00
2022-12-12T18:13:50.551Z,330.15
2022-12-12T18:16:20.578Z,422.77
2022-12-12T18:18:52.940Z,273.67
2022-12-12T18:24:14.739Z,313.05
2022-12-12T18:26:44.542Z,252.57
2022-12-12T18:29:15.023Z,263.45
2022-12-12T18:31:44.333Z,198.07
2022-12-12T18:34:14.558Z,424.58
2022-12-12T18:36:43.449Z,273.70
2022-12-12T18:39:19.461Z,143.50
2022-12-12T18:41:56.285Z,277.35
2022-12-12T18:44:39.359Z,271.58
2022-12-12T18:47:16.037Z,229.05
2022-12-12T18:49:46.168Z,179.10
2022-12-12T18:52:35.067Z,234.02
2022-12-12T18:55:08.683Z,199.63
2022-12-12T18:57:40.191Z,158.48
2022-12-12T19:00:11.563Z,211.32
2022-12-12T19:03:08.939Z,198.63
2022-12-12T19:05:44.259Z,185.98
2022-12-12T19:08:13.245Z,200.68
2022-12-12T19:11:14.695Z,155.85
2022-12-12T19:14:12.573Z,154.05
2022-12-12T19:16:42.838Z,176.05
2022-12-12T19:19:15.547Z,187.93
2022-12-12T19:22:39.722Z,87.55
2022-12-12T19:25:04.911Z,116.82
2022-12-12T19:27:36.393Z,135.23
2022-12-12T19:30:14.745Z,114.15
2022-12-12T19:36:26.794Z,103.43
2022-12-12T19:39:03.274Z,122.97
2022-12-12T19:41:37.111Z,76.50
2022-12-12T19:44:48.820Z,117.00
2022-12-12T19:47:59.615Z,121.53
2022-12-12T19:50:46.508Z,122.13
2022-12-12T19:53:50.171Z,274.77
2022-12-12T20:00:01.037Z,185.32
2022-12-12T20:02:46.031Z,151.75
2022-12-12T20:05:53.526Z,113.05
2022-12-12T20:08:48.401Z,107.07
2022-12-12T20:11:30.814Z,220.18
2022-12-12T20:14:03.654Z,103.40
2022-12-12T20:16:42.917Z,115.60
2022-12-12T20:19:33.493Z,210.63
2022-12-12T20:22:55.071Z,145.32
2022-12-12T20:25:43.575Z,111.72
2022-12-12T20:29:02.553Z,105.18
2022-12-12T20:35:13.975Z,148.02
2022-12-12T20:37:56.147Z,195.13
2022-12-12T20:40:44.510Z,138.75
2022-12-12T20:43:15.145Z,177.50
2022-12-12T20:45:48.244Z,159.88
2022-12-12T20:48:26.488Z,156.50
2022-12-12T20:51:57.991Z,109.55
2022-12-12T20:55:15.905Z,108.93
2022-12-12T20:58:05.146Z,136.07
2022-12-12T21:00:36.175Z,128.63
2022-12-12T21:03:08.276Z,108.50
2022-12-12T21:09:23.893Z,93.95
2022-12-12T21:12:17.585Z,87.95
2022-12-12T21:15:14.979Z,93.55
2022-12-12T21:18:22.607Z,76.90
2022-12-12T21:24:33.641Z,66.03
2022-12-12T21:27:43.955Z,66.68
2022-12-12T21:30:15.851Z,62.80
2022-12-12T21:32:51.424Z,64.45
2022-12-12T21:35:20.705Z,62.13
2022-12-12T21:38:26.250Z,60.85
2022-12-12T21:44:41.249Z,58.42
2022-12-12T21:50:55.845Z,62.40
2022-12-12T21:57:09.538Z,78.93
2022-12-12T22:07:42.019Z,74.95
2022-12-12T22:13:55.021Z,64.80
2022-12-12T22:17:13.520Z,60.85
2022-12-12T22:23:36.565Z,68.00
2022-12-12T22:29:45.933Z,100.90
2022-12-12T22:36:01.754Z,98.85
2022-12-12T22:42:16.679Z,117.43
2022-12-12T22:48:30.747Z,117.28
2022-12-12T22:54:47.898Z,116.53
2022-12-12T23:01:49.847Z,107.00
2022-12-12T23:23:04.704Z,77.35
2022-12-12T23:29:42.624Z,75.13
2022-12-12T23:36:02.891Z,67.38
2022-12-12T23:42:12.688Z,68.78
2022-12-12T23:48:38.633Z,62.10
2022-12-12T23:54:50.440Z,78.68
